createdAt,value
2018-06-23T00:00:30.252Z,61.79
2018-06-23T00:01:01.448Z,61.34
2018-06-23T00:01:32.639Z,61.37
2018-06-23T00:02:03.811Z,61.28
2018-06-23T00:02:34.981Z,60.94
2018-06-23T00:03:06.161Z,60.55
2018-06-23T00:03:37.427Z,61.33
2018-06-23T00:04:08.654Z,61.53
2018-06-23T00:04:39.834Z,61.21
2018-06-23T00:05:11.001Z,60.87
2018-06-23T00:05:42.168Z,60.26
2018-06-23T00:06:13.392Z,60.19
2018-06-23T00:06:44.584Z,60.39
2018-06-23T00:07:15.767Z,60.29
2018-06-23T00:07:46.944Z,60.24
2018-06-23T00:08:18.135Z,60.24
2018-06-23T00:08:49.361Z,59.52
2018-06-23T00:09:20.581Z,58.97
2018-06-23T00:09:51.772Z,58.91
2018-06-23T00:10:22.933Z,59.89
2018-06-23T00:10:54.201Z,59.68
2018-06-23T00:11:26.176Z,59.47
2018-06-23T00:11:57.408Z,59.64
2018-06-23T00:12:28.588Z,59.49
2018-06-23T00:12:59.832Z,59.00
2018-06-23T00:13:31.000Z,59.01
2018-06-23T00:14:02.273Z,59.00
2018-06-23T00:14:33.506Z,59.48
2018-06-23T00:15:04.741Z,59.57
2018-06-23T00:15:35.972Z,59.60
2018-06-23T00:16:07.197Z,59.04
2018-06-23T00:16:38.386Z,59.44
2018-06-23T00:17:09.566Z,58.65
2018-06-23T00:17:40.748Z,59.49
2018-06-23T00:18:11.926Z,59.23
2018-06-23T00:18:43.149Z,59.19
2018-06-23T00:19:14.335Z,58.98
2018-06-23T00:19:45.512Z,57.90
2018-06-23T00:20:16.749Z,57.89
2018-06-23T00:20:47.938Z,58.63
2018-06-23T00:21:19.116Z,57.92
2018-06-23T00:21:51.303Z,58.82
2018-06-23T00:22:22.481Z,58.04
2018-06-23T00:22:53.656Z,58.17
2018-06-23T00:23:24.842Z,58.36
2018-06-23T00:23:56.062Z,57.61
2018-06-23T00:24:27.240Z,57.77
2018-06-23T00:24:58.464Z,58.27
2018-06-23T00:25:29.649Z,57.68
2018-06-23T00:26:00.825Z,57.45
2018-06-23T00:26:32.066Z,58.13
2018-06-23T00:27:03.299Z,58.70
2018-06-23T00:27:35.653Z,57.53
2018-06-23T00:28:06.888Z,58.35
2018-06-23T00:28:38.077Z,57.91
2018-06-23T00:29:09.297Z,57.76
2018-06-23T00:29:40.477Z,58.54
2018-06-23T00:30:11.663Z,58.08
2018-06-23T00:30:42.885Z,58.19
2018-06-23T00:31:14.061Z,58.46
2018-06-23T00:31:45.228Z,57.75
2018-06-23T00:32:16.398Z,57.56
2018-06-23T00:32:47.566Z,58.12
2018-06-23T00:33:18.790Z,58.13
2018-06-23T00:33:49.980Z,58.24
2018-06-23T00:34:21.261Z,57.67
2018-06-23T00:34:52.439Z,57.35
2018-06-23T00:35:23.604Z,57.86
2018-06-23T00:35:54.781Z,58.03
2018-06-23T00:36:25.956Z,57.59
2018-06-23T00:36:57.128Z,57.67
2018-06-23T00:37:28.338Z,58.13
2018-06-23T00:37:59.516Z,57.62
2018-06-23T00:38:30.736Z,58.20
2018-06-23T00:39:01.961Z,58.27
2018-06-23T00:39:33.135Z,58.32
2018-06-23T00:40:04.365Z,58.73
2018-06-23T00:40:35.536Z,58.61
2018-06-23T00:41:06.746Z,58.70
2018-06-23T00:41:37.960Z,58.47
2018-06-23T00:42:09.136Z,58.95
2018-06-23T00:42:40.352Z,58.13
2018-06-23T00:43:11.529Z,58.12
2018-06-23T00:43:42.704Z,58.41
2018-06-23T00:44:13.873Z,57.86
2018-06-23T00:44:45.115Z,59.20
2018-06-23T00:45:16.382Z,58.41
2018-06-23T00:45:47.569Z,57.56
2018-06-23T00:46:18.788Z,58.16
2018-06-23T00:46:50.000Z,57.39
2018-06-23T00:47:21.188Z,57.77
2018-06-23T00:47:52.408Z,57.68
2018-06-23T00:48:23.577Z,58.25
2018-06-23T00:48:54.796Z,57.58
2018-06-23T00:49:25.976Z,57.45
2018-06-23T00:49:57.156Z,57.66
2018-06-23T00:50:28.326Z,58.65
2018-06-23T00:50:59.553Z,57.64
2018-06-23T00:51:30.739Z,58.06
2018-06-23T00:52:01.921Z,57.84
2018-06-23T00:52:33.102Z,57.45
2018-06-23T00:53:04.379Z,57.29
2018-06-23T00:53:36.227Z,57.43
2018-06-23T00:54:07.469Z,57.04
2018-06-23T00:54:38.657Z,57.68
2018-06-23T00:55:09.882Z,57.10
2018-06-23T00:55:41.060Z,57.13
2018-06-23T00:56:12.236Z,57.84
2018-06-23T00:56:43.458Z,57.20
2018-06-23T00:57:14.649Z,57.06
2018-06-23T00:57:45.830Z,57.48
2018-06-23T00:58:17.071Z,57.59
2018-06-23T00:58:48.239Z,57.49
2018-06-23T00:59:19.404Z,57.21
2018-06-23T00:59:50.584Z,57.01
2018-06-23T01:00:21.764Z,57.31
2018-06-23T01:00:52.940Z,57.73
2018-06-23T01:01:24.100Z,57.82
2018-06-23T01:01:55.305Z,57.66
2018-06-23T01:02:26.464Z,57.68
2018-06-23T01:02:57.642Z,58.43
2018-06-23T01:03:28.929Z,57.91
2018-06-23T01:04:00.108Z,58.51
2018-06-23T01:04:31.283Z,57.94
2018-06-23T01:05:02.527Z,58.57
2018-06-23T01:05:33.761Z,57.97
2018-06-23T01:06:04.993Z,58.40
2018-06-23T01:06:36.345Z,58.61
2018-06-23T01:07:07.575Z,58.35
2018-06-23T01:07:38.752Z,58.82
2018-06-23T01:08:09.967Z,58.64
2018-06-23T01:08:41.184Z,59.06
2018-06-23T01:09:12.416Z,58.57
2018-06-23T01:09:43.595Z,58.61
2018-06-23T01:10:14.815Z,59.00
2018-06-23T01:10:45.985Z,58.93
2018-06-23T01:11:17.160Z,58.41
2018-06-23T01:11:48.336Z,58.22
2018-06-23T01:12:20.285Z,58.65
2018-06-23T01:12:51.457Z,58.28
2018-06-23T01:13:22.624Z,59.19
2018-06-23T01:13:53.792Z,59.04
2018-06-23T01:14:24.964Z,59.07
2018-06-23T01:14:56.142Z,58.42
2018-06-23T01:15:27.357Z,59.03
2018-06-23T01:15:58.578Z,59.38
2018-06-23T01:16:29.767Z,58.85
2018-06-23T01:17:01.522Z,59.38
2018-06-23T01:17:32.744Z,59.18
2018-06-23T01:18:03.935Z,59.64
2018-06-23T01:18:35.167Z,59.60
2018-06-23T01:19:06.352Z,59.80
2018-06-23T01:19:37.617Z,59.17
2018-06-23T01:20:08.808Z,59.02
2018-06-23T01:20:39.977Z,59.78
2018-06-23T01:21:11.213Z,59.21
2018-06-23T01:21:42.524Z,59.78
2018-06-23T01:22:13.756Z,59.18
2018-06-23T01:22:44.932Z,58.81
2018-06-23T01:23:16.117Z,59.28
2018-06-23T01:23:47.294Z,60.43
2018-06-23T01:24:18.468Z,58.78
2018-06-23T01:24:49.684Z,59.26
2018-06-23T01:25:20.864Z,59.27
2018-06-23T01:25:52.070Z,58.80
2018-06-23T01:26:23.299Z,59.33
2018-06-23T01:26:54.484Z,58.79
2018-06-23T01:27:25.652Z,59.64
2018-06-23T01:27:56.821Z,59.50
2018-06-23T01:28:27.988Z,59.62
2018-06-23T01:28:59.158Z,59.65
2018-06-23T01:29:31.431Z,59.15
2018-06-23T01:30:02.662Z,59.51
2018-06-23T01:30:33.900Z,59.38
2018-06-23T01:31:05.133Z,59.39
2018-06-23T01:31:36.312Z,59.07
2018-06-23T01:32:07.503Z,59.12
2018-06-23T01:32:38.712Z,59.31
2018-06-23T01:33:09.924Z,59.20
2018-06-23T01:33:41.096Z,59.23
2018-06-23T01:34:12.264Z,59.27
2018-06-23T01:34:43.512Z,58.50
2018-06-23T01:35:14.729Z,59.54
2018-06-23T01:35:45.968Z,59.37
2018-06-23T01:36:17.181Z,58.87
2018-06-23T01:36:48.349Z,58.86
2018-06-23T01:37:19.524Z,58.80
2018-06-23T01:37:50.709Z,58.43
2018-06-23T01:38:21.968Z,58.44
2018-06-23T01:38:53.148Z,58.52
2018-06-23T01:39:24.346Z,58.25
2018-06-23T01:39:55.568Z,58.89
2018-06-23T01:40:26.745Z,58.79
2018-06-23T01:40:57.974Z,58.61
2018-06-23T01:41:29.204Z,58.49
2018-06-23T01:42:00.368Z,58.62
2018-06-23T01:42:31.544Z,58.92
2018-06-23T01:43:02.757Z,58.76
2018-06-23T01:43:33.936Z,59.20
2018-06-23T01:44:05.165Z,58.79
2018-06-23T01:44:36.337Z,58.96
2018-06-23T01:45:07.507Z,59.30
2018-06-23T01:45:39.716Z,58.70
2018-06-23T01:46:10.907Z,58.38
2018-06-23T01:46:42.233Z,59.12
2018-06-23T01:47:13.420Z,58.11
2018-06-23T01:47:44.589Z,58.01
2018-06-23T01:48:15.768Z,57.72
2018-06-23T01:48:46.941Z,57.86
2018-06-23T01:49:18.165Z,57.83
2018-06-23T01:49:49.431Z,57.93
2018-06-23T01:50:20.649Z,58.33
2018-06-23T01:50:51.833Z,57.97
2018-06-23T01:51:23.005Z,57.94
2018-06-23T01:51:54.169Z,58.45
2018-06-23T01:52:25.409Z,57.93
2018-06-23T01:52:56.580Z,58.18
2018-06-23T01:53:27.748Z,58.35
2018-06-23T01:53:58.969Z,57.46
2018-06-23T01:54:30.196Z,57.83
2018-06-23T01:55:01.460Z,58.07
2018-06-23T01:55:32.643Z,57.72
2018-06-23T01:56:03.816Z,58.31
2018-06-23T01:56:35.004Z,57.84
2018-06-23T01:57:06.233Z,58.00
2018-06-23T01:57:38.201Z,57.84
2018-06-23T01:58:09.518Z,58.21
2018-06-23T01:58:40.759Z,58.15
2018-06-23T01:59:11.940Z,58.49
2018-06-23T01:59:43.100Z,58.33
2018-06-23T02:00:14.272Z,57.90
2018-06-23T02:00:45.433Z,57.93
2018-06-23T02:01:16.669Z,58.46
2018-06-23T02:01:47.858Z,58.03
2018-06-23T02:02:19.038Z,58.21
2018-06-23T02:02:50.227Z,58.20
2018-06-23T02:03:21.514Z,58.22
2018-06-23T02:03:52.762Z,58.80
2018-06-23T02:04:23.937Z,58.44
2018-06-23T02:04:55.153Z,58.82
2018-06-23T02:05:26.369Z,58.39
2018-06-23T02:05:57.589Z,58.20
2018-06-23T02:06:28.773Z,58.23
2018-06-23T02:06:59.993Z,58.71
2018-06-23T02:07:31.181Z,58.55
2018-06-23T02:08:02.452Z,58.33
2018-06-23T02:08:33.678Z,58.78
2018-06-23T02:09:04.922Z,58.54
2018-06-23T02:09:36.117Z,58.83
2018-06-23T02:10:07.361Z,58.20
2018-06-23T02:10:38.585Z,58.90
2018-06-23T02:11:09.817Z,58.08
2018-06-23T02:11:40.996Z,58.15
2018-06-23T02:12:12.168Z,58.61
2018-06-23T02:12:43.340Z,58.67
2018-06-23T02:13:14.500Z,58.07
2018-06-23T02:13:46.916Z,57.62
2018-06-23T02:14:18.083Z,58.30
2018-06-23T02:14:49.257Z,58.21
2018-06-23T02:15:20.479Z,57.88
2018-06-23T02:15:51.667Z,57.90
2018-06-23T02:16:22.845Z,57.70
2018-06-23T02:16:54.065Z,57.80
2018-06-23T02:17:25.241Z,57.32
2018-06-23T02:17:56.453Z,57.30
2018-06-23T02:18:27.634Z,57.71
2018-06-23T02:18:58.844Z,57.64
2018-06-23T02:19:30.062Z,57.34
2018-06-23T02:20:01.342Z,57.47
2018-06-23T02:20:32.521Z,57.02
2018-06-23T02:21:03.693Z,57.50
2018-06-23T02:21:34.865Z,57.92
2018-06-23T02:22:06.098Z,57.21
2018-06-23T02:22:37.316Z,57.32
2018-06-23T02:23:08.492Z,57.35
2018-06-23T02:23:39.753Z,58.14
2018-06-23T02:24:11.013Z,57.83
2018-06-23T02:24:42.242Z,57.60
2018-06-23T02:25:13.462Z,57.76
2018-06-23T02:25:44.693Z,57.20
2018-06-23T02:26:16.902Z,57.26
2018-06-23T02:26:48.073Z,57.34
2018-06-23T02:27:19.244Z,57.75
2018-06-23T02:27:50.469Z,56.76
2018-06-23T02:28:21.641Z,57.33
2018-06-23T02:28:52.804Z,57.78
2018-06-23T02:29:23.993Z,57.03
2018-06-23T02:29:55.289Z,56.88
2018-06-23T02:30:26.480Z,56.91
2018-06-23T02:30:57.717Z,56.98
2018-06-23T02:31:29.008Z,56.84
2018-06-23T02:32:00.184Z,56.90
2018-06-23T02:32:31.445Z,56.79
2018-06-23T02:33:02.679Z,56.68
2018-06-23T02:33:33.869Z,56.85
2018-06-23T02:34:05.093Z,56.71
2018-06-23T02:34:36.261Z,56.68
2018-06-23T02:35:07.485Z,56.91
2018-06-23T02:35:38.665Z,57.34
2018-06-23T02:36:09.832Z,57.50
2018-06-23T02:36:42.022Z,56.75
2018-06-23T02:37:13.256Z,57.27
2018-06-23T02:37:44.497Z,57.54
2018-06-23T02:38:15.680Z,56.79
2018-06-23T02:38:46.901Z,57.03
2018-06-23T02:39:18.132Z,56.67
2018-06-23T02:39:49.394Z,57.50
2018-06-23T02:40:20.577Z,56.76
2018-06-23T02:40:51.748Z,56.60
2018-06-23T02:41:22.930Z,57.56
2018-06-23T02:41:54.189Z,57.06
2018-06-23T02:42:26.194Z,56.97
2018-06-23T02:42:57.360Z,57.15
2018-06-23T02:43:28.537Z,56.16
2018-06-23T02:43:59.790Z,56.07
2018-06-23T02:44:30.956Z,56.83
2018-06-23T02:45:02.176Z,56.92
2018-06-23T02:45:33.358Z,56.82
2018-06-23T02:46:04.525Z,56.28
2018-06-23T02:46:35.701Z,57.01
2018-06-23T02:47:06.960Z,56.83
2018-06-23T02:47:38.132Z,56.74
2018-06-23T02:48:09.305Z,56.59
2018-06-23T02:48:40.479Z,57.61
2018-06-23T02:49:11.708Z,56.87
2018-06-23T02:49:42.887Z,56.74
2018-06-23T02:50:14.110Z,57.12
2018-06-23T02:50:45.345Z,56.72
2018-06-23T02:51:16.524Z,57.11
2018-06-23T02:51:47.702Z,56.40
2018-06-23T02:52:18.896Z,56.13
2018-06-23T02:52:50.116Z,56.22
2018-06-23T02:53:21.285Z,56.39
2018-06-23T02:53:52.448Z,55.50
2018-06-23T02:54:23.608Z,56.14
2018-06-23T02:54:54.825Z,56.35
2018-06-23T02:55:26.005Z,56.16
2018-06-23T02:55:58.408Z,55.67
2018-06-23T02:56:29.576Z,55.45
2018-06-23T02:57:00.821Z,55.83
2018-06-23T02:57:31.989Z,56.28
2018-06-23T02:58:03.201Z,56.42
2018-06-23T02:58:34.377Z,56.03
2018-06-23T02:59:05.566Z,56.37
2018-06-23T02:59:36.757Z,56.14
2018-06-23T03:00:07.989Z,55.45
2018-06-23T03:00:39.205Z,55.15
2018-06-23T03:01:11.211Z,56.12
2018-06-23T03:01:42.397Z,55.83
2018-06-23T03:02:13.568Z,56.25
2018-06-23T03:02:44.751Z,55.81
2018-06-23T03:03:15.984Z,55.49
2018-06-23T03:03:47.165Z,55.62
2018-06-23T03:04:18.390Z,55.17
2018-06-23T03:04:49.636Z,55.55
2018-06-23T03:05:20.811Z,55.02
2018-06-23T03:05:52.037Z,56.24
2018-06-23T03:06:23.220Z,55.12
2018-06-23T03:06:54.810Z,55.34
2018-06-23T03:07:25.997Z,55.33
2018-06-23T03:07:57.220Z,55.75
2018-06-23T03:08:28.385Z,54.28
2018-06-23T03:08:59.556Z,54.47
2018-06-23T03:09:30.778Z,54.29
2018-06-23T03:10:02.018Z,54.40
2018-06-23T03:10:33.240Z,54.96
2018-06-23T03:11:04.413Z,54.65
2018-06-23T03:11:35.609Z,54.92
2018-06-23T03:12:06.801Z,54.87
2018-06-23T03:12:38.067Z,54.29
2018-06-23T03:13:09.290Z,54.87
2018-06-23T03:13:40.533Z,54.36
2018-06-23T03:14:11.766Z,55.15
2018-06-23T03:14:42.946Z,54.79
2018-06-23T03:15:14.147Z,55.06
2018-06-23T03:15:45.329Z,55.13
2018-06-23T03:16:16.494Z,55.72
2018-06-23T03:16:47.665Z,54.60
2018-06-23T03:17:18.848Z,55.72
2018-06-23T03:17:50.040Z,55.49
2018-06-23T03:18:21.254Z,55.82
2018-06-23T03:18:52.486Z,54.73
2018-06-23T03:19:23.713Z,54.94
2018-06-23T03:19:54.977Z,54.54
2018-06-23T03:20:26.251Z,54.83
2018-06-23T03:20:57.426Z,54.78
2018-06-23T03:21:28.604Z,53.96
2018-06-23T03:21:59.839Z,54.56
2018-06-23T03:22:31.053Z,54.25
2018-06-23T03:23:02.220Z,55.04
2018-06-23T03:23:33.786Z,54.17
2018-06-23T03:24:04.989Z,54.11
2018-06-23T03:24:36.156Z,53.98
2018-06-23T03:25:07.339Z,54.86
2018-06-23T03:25:38.605Z,54.96
2018-06-23T03:26:09.786Z,54.37
2018-06-23T03:26:40.957Z,54.79
2018-06-23T03:27:12.127Z,54.41
2018-06-23T03:27:43.288Z,54.83
2018-06-23T03:28:14.524Z,54.86
2018-06-23T03:28:45.700Z,55.12
2018-06-23T03:29:16.955Z,54.43
2018-06-23T03:29:48.237Z,54.41
2018-06-23T03:30:19.420Z,54.69
2018-06-23T03:30:50.632Z,55.06
2018-06-23T03:31:21.805Z,54.42
2018-06-23T03:31:53.021Z,54.71
2018-06-23T03:32:24.200Z,54.70
2018-06-23T03:32:55.456Z,54.61
2018-06-23T03:33:26.688Z,55.84
2018-06-23T03:33:57.872Z,54.83
2018-06-23T03:34:29.117Z,55.42
2018-06-23T03:35:00.356Z,54.78
2018-06-23T03:35:31.598Z,55.25
2018-06-23T03:36:02.845Z,55.27
2018-06-23T03:36:34.036Z,54.69
2018-06-23T03:37:05.285Z,54.96
2018-06-23T03:37:36.461Z,54.51
2018-06-23T03:38:07.733Z,54.76
2018-06-23T03:38:39.163Z,56.15
2018-06-23T03:39:10.383Z,55.08
2018-06-23T03:39:41.571Z,55.23
2018-06-23T03:40:12.806Z,55.10
2018-06-23T03:40:44.077Z,55.15
2018-06-23T03:41:15.253Z,54.83
2018-06-23T03:41:46.416Z,54.88
2018-06-23T03:42:17.600Z,56.28
2018-06-23T03:42:48.837Z,54.72
2018-06-23T03:43:20.022Z,54.76
2018-06-23T03:43:51.237Z,54.99
2018-06-23T03:44:22.451Z,54.93
2018-06-23T03:44:53.670Z,54.77
2018-06-23T03:45:24.876Z,54.60
2018-06-23T03:45:56.040Z,55.43
2018-06-23T03:46:27.271Z,54.77
2018-06-23T03:46:58.447Z,54.63
2018-06-23T03:47:29.631Z,54.82
2018-06-23T03:48:00.855Z,55.02
2018-06-23T03:48:32.024Z,55.60
2018-06-23T03:49:03.194Z,54.84
2018-06-23T03:49:34.363Z,55.76
2018-06-23T03:50:05.605Z,54.32
2018-06-23T03:50:36.876Z,54.63
2018-06-23T03:51:08.130Z,54.46
2018-06-23T03:51:39.315Z,55.25
2018-06-23T03:52:10.496Z,54.12
2018-06-23T03:52:41.674Z,54.40
2018-06-23T03:53:12.870Z,53.81
2018-06-23T03:53:44.040Z,54.29
2018-06-23T03:54:15.248Z,54.07
2018-06-23T03:54:46.761Z,53.90
2018-06-23T03:55:17.998Z,55.03
2018-06-23T03:55:49.261Z,54.53
2018-06-23T03:56:20.488Z,54.59
2018-06-23T03:56:51.664Z,54.75
2018-06-23T03:57:22.836Z,53.93
2018-06-23T03:57:54.005Z,54.81
2018-06-23T03:58:25.233Z,53.89
2018-06-23T03:58:56.412Z,53.37
2018-06-23T03:59:27.573Z,54.06
2018-06-23T03:59:58.791Z,54.04
2018-06-23T04:00:30.016Z,54.87
2018-06-23T04:01:01.249Z,54.33
2018-06-23T04:01:32.425Z,54.73
2018-06-23T04:02:03.590Z,54.18
2018-06-23T04:02:34.764Z,53.94
2018-06-23T04:03:05.934Z,53.63
2018-06-23T04:03:37.124Z,54.16
2018-06-23T04:04:08.333Z,53.62
2018-06-23T04:04:39.555Z,53.41
2018-06-23T04:05:10.720Z,53.64
2018-06-23T04:05:42.242Z,53.56
2018-06-23T04:06:13.458Z,53.20
2018-06-23T04:06:44.690Z,53.66
2018-06-23T04:07:15.884Z,53.46
2018-06-23T04:07:47.049Z,53.17
2018-06-23T04:08:18.220Z,53.13
2018-06-23T04:08:49.419Z,53.23
2018-06-23T04:09:20.638Z,53.21
2018-06-23T04:09:51.836Z,52.87
2018-06-23T04:10:23.026Z,52.78
2018-06-23T04:10:54.250Z,52.37
2018-06-23T04:11:25.549Z,52.45
2018-06-23T04:11:56.801Z,52.77
2018-06-23T04:12:27.996Z,52.86
2018-06-23T04:12:59.156Z,52.96
2018-06-23T04:13:30.327Z,53.14
2018-06-23T04:14:01.496Z,53.21
2018-06-23T04:14:32.671Z,53.25
2018-06-23T04:15:03.901Z,52.91
2018-06-23T04:15:35.119Z,53.24
2018-06-23T04:16:06.295Z,52.82
2018-06-23T04:16:37.513Z,53.10
2018-06-23T04:17:08.793Z,52.37
2018-06-23T04:17:40.032Z,52.59
2018-06-23T04:18:11.200Z,53.14
2018-06-23T04:18:42.411Z,52.67
2018-06-23T04:19:13.640Z,53.10
2018-06-23T04:19:44.820Z,52.98
2018-06-23T04:20:16.058Z,52.34
2018-06-23T04:20:47.285Z,52.71
2018-06-23T04:21:18.513Z,53.17
2018-06-23T04:21:49.745Z,53.41
2018-06-23T04:22:20.964Z,52.59
2018-06-23T04:22:52.184Z,51.79
2018-06-23T04:23:24.703Z,51.76
2018-06-23T04:23:55.869Z,52.56
2018-06-23T04:24:27.077Z,52.05
2018-06-23T04:24:58.306Z,53.85
2018-06-23T04:25:29.497Z,52.90
2018-06-23T04:26:00.733Z,52.33
2018-06-23T04:26:31.961Z,53.34
2018-06-23T04:27:03.148Z,52.81
2018-06-23T04:27:34.745Z,52.94
2018-06-23T04:28:05.976Z,53.63
2018-06-23T04:28:37.192Z,53.25
2018-06-23T04:29:08.380Z,54.29
2018-06-23T04:29:39.598Z,53.73
2018-06-23T04:30:10.780Z,53.54
2018-06-23T04:30:42.000Z,53.24
2018-06-23T04:31:13.163Z,53.21
2018-06-23T04:31:44.327Z,53.64
2018-06-23T04:32:15.493Z,53.83
2018-06-23T04:32:46.726Z,53.22
2018-06-23T04:33:17.926Z,53.58
2018-06-23T04:33:49.096Z,53.18
2018-06-23T04:34:20.325Z,53.09
2018-06-23T04:34:51.568Z,53.57
2018-06-23T04:35:22.796Z,53.44
2018-06-23T04:35:54.008Z,53.99
2018-06-23T04:36:25.241Z,53.20
2018-06-23T04:36:56.468Z,53.65
2018-06-23T04:37:27.649Z,53.49
2018-06-23T04:37:58.825Z,53.81
2018-06-23T04:38:30.042Z,52.99
2018-06-23T04:39:01.265Z,53.92
2018-06-23T04:39:32.480Z,53.94
2018-06-23T04:40:03.697Z,53.67
2018-06-23T04:40:34.944Z,53.68
2018-06-23T04:41:06.173Z,53.83
2018-06-23T04:41:37.440Z,54.07
2018-06-23T04:42:08.665Z,53.54
2018-06-23T04:42:40.077Z,54.17
2018-06-23T04:43:11.256Z,53.79
2018-06-23T04:43:42.425Z,54.01
2018-06-23T04:44:13.631Z,54.47
2018-06-23T04:44:44.805Z,54.27
2018-06-23T04:45:16.029Z,53.89
2018-06-23T04:45:47.260Z,53.55
2018-06-23T04:46:18.432Z,53.27
2018-06-23T04:46:49.677Z,53.69
2018-06-23T04:47:20.855Z,53.41
2018-06-23T04:47:52.016Z,54.18
2018-06-23T04:48:23.240Z,53.82
2018-06-23T04:48:54.485Z,53.54
2018-06-23T04:49:25.669Z,54.01
2018-06-23T04:49:56.838Z,53.72
2018-06-23T04:50:28.005Z,54.02
2018-06-23T04:50:59.216Z,53.56
2018-06-23T04:51:30.389Z,54.35
2018-06-23T04:52:01.557Z,54.56
2018-06-23T04:52:32.776Z,53.67
2018-06-23T04:53:03.950Z,53.76
2018-06-23T04:53:35.117Z,53.94
2018-06-23T04:54:06.320Z,52.83
2018-06-23T04:54:37.501Z,53.77
2018-06-23T04:55:08.689Z,54.35
2018-06-23T04:55:39.943Z,53.46
2018-06-23T04:56:11.180Z,53.59
2018-06-23T04:56:42.362Z,53.61
2018-06-23T04:57:13.633Z,53.38
2018-06-23T04:57:44.810Z,54.14
2018-06-23T04:58:15.996Z,54.62
2018-06-23T04:58:47.174Z,54.34
2018-06-23T04:59:18.410Z,53.96
2018-06-23T04:59:49.645Z,54.03
2018-06-23T05:00:20.829Z,54.38
2018-06-23T05:00:52.022Z,54.42
2018-06-23T05:01:23.239Z,54.19
2018-06-23T05:01:54.428Z,54.79
2018-06-23T05:02:25.655Z,54.75
2018-06-23T05:02:56.828Z,54.65
2018-06-23T05:03:28.062Z,54.18
2018-06-23T05:03:59.236Z,54.33
2018-06-23T05:04:30.398Z,54.75
2018-06-23T05:05:01.621Z,54.09
2018-06-23T05:05:32.796Z,54.46
2018-06-23T05:06:03.969Z,55.91
2018-06-23T05:06:35.145Z,54.85
2018-06-23T05:07:06.381Z,54.62
2018-06-23T05:07:37.669Z,54.49
2018-06-23T05:08:08.892Z,54.83
2018-06-23T05:08:40.119Z,54.29
2018-06-23T05:09:11.297Z,54.14
2018-06-23T05:09:42.475Z,55.37
2018-06-23T05:10:13.641Z,55.50
2018-06-23T05:10:44.928Z,55.50
2018-06-23T05:11:16.153Z,54.42
2018-06-23T05:11:48.289Z,54.51
2018-06-23T05:12:19.581Z,54.84
2018-06-23T05:12:50.825Z,55.06
2018-06-23T05:13:22.018Z,55.10
2018-06-23T05:13:53.233Z,55.03
2018-06-23T05:14:24.560Z,55.47
2018-06-23T05:14:55.791Z,55.53
2018-06-23T05:15:26.964Z,55.19
2018-06-23T05:15:58.177Z,55.04
2018-06-23T05:16:29.413Z,55.17
2018-06-23T05:17:00.696Z,55.48
2018-06-23T05:17:31.916Z,56.01
2018-06-23T05:18:03.088Z,56.35
2018-06-23T05:18:34.258Z,56.17
2018-06-23T05:19:05.438Z,56.10
2018-06-23T05:19:36.602Z,56.26
2018-06-23T05:20:07.791Z,56.49
2018-06-23T05:20:39.021Z,55.82
2018-06-23T05:21:10.192Z,56.48
2018-06-23T05:21:41.361Z,56.36
2018-06-23T05:22:12.585Z,56.26
2018-06-23T05:22:43.827Z,56.53
2018-06-23T05:23:15.003Z,56.06
2018-06-23T05:23:46.170Z,57.01
2018-06-23T05:24:17.348Z,56.78
2018-06-23T05:24:48.513Z,57.94
2018-06-23T05:25:19.673Z,57.84
2018-06-23T05:25:56.860Z,58.13
2018-06-23T05:26:27.977Z,57.95
2018-06-23T05:26:59.110Z,58.94
2018-06-23T05:27:30.329Z,59.50
2018-06-23T05:28:01.512Z,59.09
2018-06-23T05:28:32.789Z,59.70
2018-06-23T05:29:03.977Z,60.14
2018-06-23T05:29:35.228Z,61.25
2018-06-23T05:30:06.433Z,61.16
2018-06-23T05:30:37.608Z,60.64
2018-06-23T05:31:08.846Z,59.88
2018-06-23T05:31:40.130Z,61.17
2018-06-23T05:32:11.316Z,60.44
2018-06-23T05:32:42.541Z,60.25
2018-06-23T05:33:13.736Z,60.35
2018-06-23T05:33:45.019Z,61.05
2018-06-23T05:34:16.262Z,60.34
2018-06-23T05:34:47.436Z,61.66
2018-06-23T05:35:18.633Z,61.82
2018-06-23T05:35:50.601Z,62.06
2018-06-23T05:36:21.784Z,62.61
2018-06-23T05:36:53.038Z,62.55
2018-06-23T05:37:24.273Z,62.27
2018-06-23T05:37:55.461Z,62.69
2018-06-23T05:38:26.641Z,63.39
2018-06-23T05:38:57.832Z,63.85
2018-06-23T05:39:29.061Z,64.40
2018-06-23T05:40:00.262Z,63.78
2018-06-23T05:40:31.464Z,65.29
2018-06-23T05:41:02.765Z,65.21
2018-06-23T05:41:33.950Z,63.75
2018-06-23T05:42:05.131Z,64.66
2018-06-23T05:42:36.431Z,63.57
2018-06-23T05:43:07.605Z,64.54
2018-06-23T05:43:38.870Z,63.22
2018-06-23T05:44:10.101Z,62.02
2018-06-23T05:44:41.335Z,62.89
2018-06-23T05:45:12.573Z,62.22
2018-06-23T05:45:43.800Z,63.44
2018-06-23T05:46:15.089Z,62.04
2018-06-23T05:46:46.305Z,60.60
2018-06-23T05:47:17.517Z,61.11
2018-06-23T05:47:48.755Z,61.13
2018-06-23T05:48:19.957Z,61.94
2018-06-23T05:48:51.284Z,61.17
2018-06-23T05:49:22.471Z,60.50
2018-06-23T05:49:53.715Z,60.61
2018-06-23T05:50:24.912Z,59.72
2018-06-23T05:50:56.085Z,60.14
2018-06-23T05:51:27.303Z,59.77
2018-06-23T05:51:58.478Z,59.12
2018-06-23T05:52:29.700Z,58.93
2018-06-23T05:53:00.910Z,59.19
2018-06-23T05:53:32.085Z,58.34
2018-06-23T05:54:03.270Z,58.50
2018-06-23T05:54:34.438Z,59.15
2018-06-23T05:55:05.628Z,58.04
2018-06-23T05:55:36.851Z,57.75
2018-06-23T05:56:08.026Z,57.94
2018-06-23T05:56:39.261Z,57.85
2018-06-23T05:57:10.432Z,57.18
2018-06-23T05:57:41.645Z,57.98
2018-06-23T05:58:12.821Z,56.49
2018-06-23T05:58:43.987Z,57.00
2018-06-23T05:59:15.864Z,56.69
2018-06-23T05:59:47.068Z,56.37
2018-06-23T06:00:18.269Z,55.67
2018-06-23T06:00:49.591Z,55.55
2018-06-23T06:01:20.811Z,55.14
2018-06-23T06:01:52.049Z,55.14
2018-06-23T06:02:23.235Z,55.58
2018-06-23T06:02:54.461Z,55.21
2018-06-23T06:03:25.627Z,54.47
2018-06-23T06:03:56.851Z,54.11
2018-06-23T06:04:28.461Z,55.52
2018-06-23T06:04:59.640Z,54.73
2018-06-23T06:05:30.821Z,53.60
2018-06-23T06:06:01.996Z,54.12
2018-06-23T06:06:33.220Z,54.41
2018-06-23T06:07:04.419Z,53.71
2018-06-23T06:07:35.592Z,54.35
2018-06-23T06:08:06.793Z,54.31
2018-06-23T06:08:38.000Z,53.92
2018-06-23T06:09:09.184Z,54.31
2018-06-23T06:09:40.414Z,53.90
2018-06-23T06:10:11.600Z,53.96
2018-06-23T06:10:42.811Z,53.96
2018-06-23T06:11:13.984Z,53.42
2018-06-23T06:11:45.258Z,52.95
2018-06-23T06:12:16.464Z,53.35
2018-06-23T06:12:47.720Z,53.13
2018-06-23T06:13:18.960Z,53.11
2018-06-23T06:13:50.191Z,53.35
2018-06-23T06:14:21.388Z,52.33
2018-06-23T06:14:52.693Z,52.73
2018-06-23T06:15:24.016Z,52.63
2018-06-23T06:15:55.249Z,52.95
2018-06-23T06:16:26.542Z,51.87
2018-06-23T06:16:57.720Z,52.74
2018-06-23T06:17:29.006Z,52.90
2018-06-23T06:18:00.599Z,52.21
2018-06-23T06:18:31.845Z,52.50
2018-06-23T06:19:03.788Z,52.04
2018-06-23T06:19:34.987Z,52.99
2018-06-23T06:20:06.161Z,52.96
2018-06-23T06:20:37.380Z,52.47
2018-06-23T06:21:08.621Z,51.90
2018-06-23T06:21:39.848Z,52.30
2018-06-23T06:22:11.016Z,52.19
2018-06-23T06:22:42.249Z,51.41
2018-06-23T06:23:13.484Z,51.71
2018-06-23T06:23:44.729Z,51.63
2018-06-23T06:24:15.933Z,51.37
2018-06-23T06:24:47.182Z,51.61
2018-06-23T06:25:18.476Z,51.57
2018-06-23T06:25:49.661Z,51.45
2018-06-23T06:26:20.984Z,52.00
2018-06-23T06:26:52.221Z,52.06
2018-06-23T06:27:23.448Z,51.73
2018-06-23T06:27:54.699Z,51.11
2018-06-23T06:28:25.883Z,51.64
2018-06-23T06:28:57.048Z,51.63
2018-06-23T06:29:28.255Z,51.15
2018-06-23T06:29:59.480Z,50.95
2018-06-23T06:30:30.663Z,50.80
2018-06-23T06:31:01.969Z,51.11
2018-06-23T06:31:33.201Z,51.10
2018-06-23T06:32:04.433Z,51.23
2018-06-23T06:32:35.701Z,50.23
2018-06-23T06:33:06.935Z,50.48
2018-06-23T06:33:38.236Z,50.70
2018-06-23T06:34:09.408Z,50.82
2018-06-23T06:34:40.580Z,50.66
2018-06-23T06:35:11.818Z,50.85
2018-06-23T06:35:43.095Z,50.34
2018-06-23T06:36:14.288Z,50.15
2018-06-23T06:36:45.463Z,50.63
2018-06-23T06:37:16.717Z,50.51
2018-06-23T06:37:48.047Z,50.40
2018-06-23T06:38:19.249Z,49.63
2018-06-23T06:38:50.445Z,49.13
2018-06-23T06:39:21.685Z,48.56
2018-06-23T06:39:52.905Z,48.42
2018-06-23T06:40:24.127Z,47.71
2018-06-23T06:40:55.372Z,48.53
2018-06-23T06:41:26.548Z,48.45
2018-06-23T06:41:57.725Z,47.71
2018-06-23T06:42:28.943Z,47.75